Time;durP1;ratioP1;P1;durP2;ratioP2;P2;SDS_P1;SDS_P2;PMS_P1;PMS_P2;Temp;Humidity;BMP_temperature;BMP_pressure;BME280_temperature;BME280_humidity;BME280_pressure;Samples;Min_cycle;Max_cycle;Signal;HPM_P1;HPM_P2
2022/01/16 00:00:47;;;;;;;49.87;24.80;;;;;;;;;;5052298;28;20418;-54
2022/01/16 00:05:58;;;;;;;49.47;24.00;;;;;;;;;;5052352;28;20978;-56
2022/01/16 00:08:24;;;;;;;53.13;24.27;;;;;;;;;;5052457;28;20404;-55
2022/01/16 00:10:50;;;;;;;45.37;23.87;;;;;;;;;;5052417;28;20442;-56
2022/01/16 00:13:16;;;;;;;45.70;24.73;;;;;;;;;;5052146;28;20411;-53
2022/01/16 00:15:44;;;;;;;55.00;24.23;;;;;;;;;;5052109;28;20410;-58
2022/01/16 00:18:20;;;;;;;48.77;24.00;;;;;;;;;;5052542;28;20759;-59
2022/01/16 00:20:46;;;;;;;47.97;25.03;;;;;;;;;;5052376;28;20430;-62
2022/01/16 00:23:12;;;;;;;45.30;21.97;;;;;;;;;;5051999;28;20517;-56
2022/01/16 00:25:38;;;;;;;51.63;25.10;;;;;;;;;;5050909;28;20415;-58
2022/01/16 00:28:04;;;;;;;46.83;23.47;;;;;;;;;;5052530;28;20412;-60
2022/01/16 00:30:30;;;;;;;47.13;23.60;;;;;;;;;;5052482;28;20404;-57
2022/01/16 00:33:00;;;;;;;43.97;22.67;;;;;;;;;;5052066;28;20407;-57
2022/01/16 00:35:26;;;;;;;42.73;22.53;;;;;;;;;;5052056;28;20465;-57
2022/01/16 00:37:52;;;;;;;49.73;22.97;;;;;;;;;;5050662;28;20916;-54
2022/01/16 00:40:19;;;;;;;49.17;24.10;;;;;;;;;;5052004;28;20454;-57
2022/01/16 00:42:45;;;;;;;47.20;21.87;;;;;;;;;;5051914;28;20461;-55
2022/01/16 00:45:11;;;;;;;46.80;23.83;;;;;;;;;;5051917;28;20415;-54
2022/01/16 00:47:37;;;;;;;42.23;23.27;;;;;;;;;;5055160;28;20416;-55
2022/01/16 00:50:04;;;;;;;42.43;22.90;;;;;;;;;;5055626;28;20472;-61
2022/01/16 00:52:30;;;;;;;41.43;22.53;;;;;;;;;;5055691;28;20450;-57
2022/01/16 00:55:02;;;;;;;44.00;22.00;;;;;;;;;;5055356;28;20408;-54
2022/01/16 00:57:29;;;;;;;42.23;22.60;;;;;;;;;;5055596;28;20411;-60
2022/01/16 00:59:55;;;;;;;46.53;23.00;;;;;;;;;;5055269;28;20908;-55
2022/01/16 01:02:21;;;;;;;40.10;21.73;;;;;;;;;;5055340;28;20445;-57
2022/01/16 01:04:47;;;;;;;41.00;22.10;;;;;;;;;;5055631;28;20924;-56
2022/01/16 01:07:14;;;;;;;42.70;22.57;;;;;;;;;;5055303;28;20454;-58
2022/01/16 01:09:40;;;;;;;40.20;22.50;;;;;;;;;;5055746;28;20825;-55
2022/01/16 01:12:06;;;;;;;46.93;22.03;;;;;;;;;;5055186;28;20811;-55
2022/01/16 01:14:42;;;;;;;37.47;20.30;;;;;;;;;;5055531;28;20415;-55
2022/01/16 01:17:12;;;;;;;41.83;22.57;;;;;;;;;;5055364;28;20775;-61
2022/01/16 01:19:39;;;;;;;45.10;20.40;;;;;;;;;;5055128;28;20411;-55
2022/01/16 01:22:05;;;;;;;42.00;20.80;;;;;;;;;;5054985;28;20886;-56
2022/01/16 01:24:33;;;;;;;40.60;22.07;;;;;;;;;;5055051;28;20465;-57
2022/01/16 01:27:17;;;;;;;49.10;22.03;;;;;;;;;;5054995;28;20419;-54
2022/01/16 01:29:50;;;;;;;41.40;22.47;;;;;;;;;;5054857;28;20415;-56
2022/01/16 01:32:16;;;;;;;42.43;22.10;;;;;;;;;;5054919;28;20461;-55
2022/01/16 01:34:42;;;;;;;43.70;22.50;;;;;;;;;;5054858;28;20754;-56
2022/01/16 01:37:08;;;;;;;41.17;22.70;;;;;;;;;;5054621;28;20537;-56
2022/01/16 01:39:34;;;;;;;40.60;21.47;;;;;;;;;;5054757;28;20499;-58
2022/01/16 01:42:05;;;;;;;40.20;22.17;;;;;;;;;;5054971;28;20407;-56
2022/01/16 01:52:45;;;;;;;38.90;21.07;;;;;;;;;;5054590;28;20422;-54
2022/01/16 01:55:12;;;;;;;42.37;21.67;;;;;;;;;;5054246;28;20461;-61
2022/01/16 01:57:38;;;;;;;40.00;19.90;;;;;;;;;;5054060;28;20442;-61
2022/01/16 02:00:05;;;;;;;43.10;21.50;;;;;;;;;;5054320;28;20443;-61
2022/01/16 02:02:42;;;;;;;43.23;20.10;;;;;;;;;;5054166;28;20512;-63
2022/01/16 02:05:10;;;;;;;40.67;21.10;;;;;;;;;;5054107;28;20415;-63
2022/01/16 02:07:36;;;;;;;36.10;19.00;;;;;;;;;;5053824;28;20430;-55
2022/01/16 02:10:03;;;;;;;42.83;21.80;;;;;;;;;;5054487;28;20400;-57
2022/01/16 02:12:30;;;;;;;38.53;21.17;;;;;;;;;;5053873;28;20400;-62
2022/01/16 02:15:06;;;;;;;41.83;19.87;;;;;;;;;;5054087;28;20407;-58
2022/01/16 02:28:57;;;;;;;39.80;20.00;;;;;;;;;;5054116;28;20473;-59
2022/01/16 02:31:25;;;;;;;32.97;18.90;;;;;;;;;;5053826;28;20461;-56
2022/01/16 02:36:47;;;;;;;38.07;19.83;;;;;;;;;;5053653;28;20402;-55
2022/01/16 02:39:15;;;;;;;36.10;18.70;;;;;;;;;;5053549;28;20421;-58
2022/01/16 02:41:42;;;;;;;37.43;19.83;;;;;;;;;;5053593;28;20469;-57
2022/01/16 02:44:30;;;;;;;35.73;19.10;;;;;;;;;;5051915;28;20471;-58
2022/01/16 02:46:57;;;;;;;34.63;19.10;;;;;;;;;;5053326;28;20465;-56
2022/01/16 02:49:30;;;;;;;33.93;18.77;;;;;;;;;;5053238;28;20412;-55
2022/01/16 02:52:07;;;;;;;37.63;18.50;;;;;;;;;;5053261;28;20447;-55
2022/01/16 02:54:38;;;;;;;38.30;18.37;;;;;;;;;;5053329;28;20415;-57
2022/01/16 02:57:06;;;;;;;39.43;19.23;;;;;;;;;;5053260;28;20844;-54
2022/01/16 02:59:33;;;;;;;43.17;21.77;;;;;;;;;;5053221;28;20410;-58
2022/01/16 03:02:01;;;;;;;35.93;19.17;;;;;;;;;;5052937;28;20399;-55
2022/01/16 03:04:27;;;;;;;38.47;18.47;;;;;;;;;;5052879;28;20498;-55
2022/01/16 03:06:53;;;;;;;39.13;19.70;;;;;;;;;;5052984;28;20431;-54
2022/01/16 03:09:20;;;;;;;35.10;18.80;;;;;;;;;;5052742;28;20925;-55
2022/01/16 03:11:48;;;;;;;41.67;19.80;;;;;;;;;;5052867;28;20468;-54
2022/01/16 03:14:16;;;;;;;39.90;19.60;;;;;;;;;;5053175;28;20463;-54
2022/01/16 03:16:45;;;;;;;30.13;17.73;;;;;;;;;;5051822;28;20431;-54
2022/01/16 03:22:10;;;;;;;33.03;18.50;;;;;;;;;;5062472;28;20812;-56
2022/01/16 03:24:40;;;;;;;33.93;19.13;;;;;;;;;;5052737;28;20407;-57
2022/01/16 03:27:14;;;;;;;34.60;19.00;;;;;;;;;;5052721;28;20415;-55
2022/01/16 03:29:41;;;;;;;32.53;18.33;;;;;;;;;;5052971;28;20399;-54
2022/01/16 03:32:08;;;;;;;36.43;21.10;;;;;;;;;;5052567;28;20414;-55
2022/01/16 03:34:34;;;;;;;35.40;18.80;;;;;;;;;;5051482;28;20465;-54
2022/01/16 03:37:00;;;;;;;36.20;18.30;;;;;;;;;;5052852;28;20465;-55
2022/01/16 03:39:26;;;;;;;40.23;19.53;;;;;;;;;;5052514;28;20414;-55
2022/01/16 03:41:55;;;;;;;30.17;17.87;;;;;;;;;;5051391;28;20419;-56
2022/01/16 03:44:21;;;;;;;30.73;17.93;;;;;;;;;;5052522;28;20467;-55
2022/01/16 03:46:47;;;;;;;30.83;17.13;;;;;;;;;;5052455;28;20807;-55
2022/01/16 03:49:16;;;;;;;33.73;18.63;;;;;;;;;;5052722;28;20457;-54
2022/01/16 03:51:44;;;;;;;29.43;16.73;;;;;;;;;;5051208;28;20416;-56
2022/01/16 03:54:11;;;;;;;34.03;17.53;;;;;;;;;;5052708;28;20427;-53
2022/01/16 03:56:37;;;;;;;34.13;19.37;;;;;;;;;;5052390;28;21031;-55
2022/01/16 03:59:03;;;;;;;31.40;18.00;;;;;;;;;;5052542;28;20412;-55
2022/01/16 04:01:29;;;;;;;41.33;20.33;;;;;;;;;;5052262;28;20487;-57
2022/01/16 04:03:56;;;;;;;39.43;20.07;;;;;;;;;;5052139;28;20471;-62
2022/01/16 04:06:22;;;;;;;41.73;20.33;;;;;;;;;;5052299;28;20495;-58
2022/01/16 04:08:49;;;;;;;39.60;19.03;;;;;;;;;;5052303;28;20415;-55
2022/01/16 04:11:15;;;;;;;39.57;19.13;;;;;;;;;;5052297;28;20489;-57
2022/01/16 04:13:53;;;;;;;32.97;18.13;;;;;;;;;;5052149;28;20932;-58
2022/01/16 04:16:20;;;;;;;38.33;18.70;;;;;;;;;;5050909;28;20416;-54
2022/01/16 04:18:51;;;;;;;35.10;17.63;;;;;;;;;;5050936;28;20440;-54
2022/01/16 04:21:18;;;;;;;38.70;18.83;;;;;;;;;;5053143;28;20530;-56
2022/01/16 04:23:44;;;;;;;38.90;20.10;;;;;;;;;;5055966;28;20972;-59
2022/01/16 04:26:10;;;;;;;39.87;19.50;;;;;;;;;;5056242;28;20407;-59
2022/01/16 04:28:36;;;;;;;39.77;19.70;;;;;;;;;;5055873;28;20457;-53
2022/01/16 04:31:02;;;;;;;33.77;18.03;;;;;;;;;;5056038;28;20407;-55
2022/01/16 04:33:29;;;;;;;35.37;19.47;;;;;;;;;;5056105;28;20499;-54
2022/01/16 04:35:55;;;;;;;38.37;19.13;;;;;;;;;;5056112;28;21540;-54
2022/01/16 04:38:21;;;;;;;42.43;18.67;;;;;;;;;;5055922;28;20415;-54
2022/01/16 04:43:52;;;;;;;40.00;17.80;;;;;;;;;;5055965;28;20570;-54
2022/01/16 04:46:21;;;;;;;36.90;18.60;;;;;;;;;;5055814;28;20752;-54
2022/01/16 04:48:47;;;;;;;37.40;19.00;;;;;;;;;;5055516;28;20908;-58
2022/01/16 04:51:13;;;;;;;37.37;18.83;;;;;;;;;;5055516;28;20403;-58
2022/01/16 04:53:39;;;;;;;38.70;19.43;;;;;;;;;;5055427;28;20415;-56
2022/01/16 04:56:06;;;;;;;37.47;19.50;;;;;;;;;;5055474;28;20439;-59
2022/01/16 04:58:32;;;;;;;38.23;19.00;;;;;;;;;;5055456;28;20423;-55
2022/01/16 05:00:58;;;;;;;32.80;17.83;;;;;;;;;;5055264;28;20399;-63
2022/01/16 05:03:25;;;;;;;40.27;19.30;;;;;;;;;;5053920;28;20478;-57
2022/01/16 05:05:51;;;;;;;39.60;18.57;;;;;;;;;;5055260;28;20431;-61
2022/01/16 05:08:17;;;;;;;32.70;18.57;;;;;;;;;;5055126;28;20542;-61
2022/01/16 05:10:43;;;;;;;37.10;19.67;;;;;;;;;;5055281;28;20447;-63
2022/01/16 05:18:36;;;;;;;36.40;18.60;;;;;;;;;;5055293;28;20536;-54
2022/01/16 05:21:02;;;;;;;35.40;18.77;;;;;;;;;;5055038;28;20465;-55
2022/01/16 05:23:28;;;;;;;37.33;16.70;;;;;;;;;;5054723;28;20479;-63
2022/01/16 05:25:54;;;;;;;38.30;18.77;;;;;;;;;;5054823;28;20811;-55
2022/01/16 05:28:20;;;;;;;35.50;17.53;;;;;;;;;;5054690;28;20411;-53
2022/01/16 05:30:46;;;;;;;39.63;17.87;;;;;;;;;;5053309;28;20454;-63
2022/01/16 05:33:12;;;;;;;35.07;18.10;;;;;;;;;;5053068;28;20390;-64
2022/01/16 05:35:38;;;;;;;32.97;17.63;;;;;;;;;;5054649;28;20461;-58
2022/01/16 05:38:04;;;;;;;36.63;18.73;;;;;;;;;;5054830;28;20416;-56
2022/01/16 05:40:30;;;;;;;38.53;18.47;;;;;;;;;;5054808;28;20404;-56
2022/01/16 05:42:58;;;;;;;32.37;17.20;;;;;;;;;;5054656;28;20459;-54
2022/01/16 05:45:24;;;;;;;31.87;15.50;;;;;;;;;;5054718;28;20408;-54
2022/01/16 05:47:50;;;;;;;33.90;17.20;;;;;;;;;;5054706;28;20915;-53
2022/01/16 05:50:16;;;;;;;51.43;17.60;;;;;;;;;;5054565;28;20876;-55
2022/01/16 05:52:42;;;;;;;32.73;15.87;;;;;;;;;;5054407;28;20403;-54
2022/01/16 05:55:08;;;;;;;32.60;15.20;;;;;;;;;;5054663;28;20403;-54
2022/01/16 05:57:34;;;;;;;58.47;18.50;;;;;;;;;;5054606;28;20411;-54
2022/01/16 06:00:00;;;;;;;61.67;17.67;;;;;;;;;;5054479;28;20400;-54
2022/01/16 06:02:27;;;;;;;36.47;17.63;;;;;;;;;;5054222;28;20506;-52
2022/01/16 06:04:53;;;;;;;40.90;15.80;;;;;;;;;;5054160;28;20408;-55
2022/01/16 06:07:19;;;;;;;40.73;18.93;;;;;;;;;;5054239;28;20408;-56
2022/01/16 06:09:46;;;;;;;58.43;19.17;;;;;;;;;;5054001;28;20503;-53
2022/01/16 06:12:12;;;;;;;49.33;21.33;;;;;;;;;;5053998;28;20400;-55
2022/01/16 06:14:38;;;;;;;39.63;19.93;;;;;;;;;;5053832;28;20511;-55
2022/01/16 06:17:04;;;;;;;42.70;20.83;;;;;;;;;;5053939;28;20443;-61
2022/01/16 06:19:30;;;;;;;42.73;21.73;;;;;;;;;;5054105;28;20444;-56
2022/01/16 06:21:57;;;;;;;43.53;20.63;;;;;;;;;;5052550;28;20455;-54
2022/01/16 06:24:23;;;;;;;44.40;21.30;;;;;;;;;;5053636;28;20467;-59
2022/01/16 06:26:49;;;;;;;47.17;21.47;;;;;;;;;;5053984;28;20734;-54
2022/01/16 06:29:15;;;;;;;39.23;18.40;;;;;;;;;;5053567;28;20403;-56
2022/01/16 06:31:41;;;;;;;43.43;20.27;;;;;;;;;;5035801;28;20476;-56
2022/01/16 06:34:07;;;;;;;42.40;20.80;;;;;;;;;;5053649;28;20415;-57
2022/01/16 06:36:34;;;;;;;41.23;19.53;;;;;;;;;;5053947;28;20408;-60
2022/01/16 06:39:01;;;;;;;42.17;19.97;;;;;;;;;;5053897;28;20412;-58
2022/01/16 06:41:27;;;;;;;38.57;19.87;;;;;;;;;;5053349;28;20754;-58
2022/01/16 06:43:53;;;;;;;41.37;20.83;;;;;;;;;;5052825;28;20471;-57
2022/01/16 06:46:19;;;;;;;41.53;20.03;;;;;;;;;;5053345;28;20820;-56
2022/01/16 06:48:45;;;;;;;42.80;21.20;;;;;;;;;;5053314;28;20411;-57
2022/01/16 06:51:11;;;;;;;34.60;19.30;;;;;;;;;;5053635;28;20820;-56
2022/01/16 06:53:37;;;;;;;42.40;20.40;;;;;;;;;;5053257;28;20452;-58
2022/01/16 06:56:03;;;;;;;34.87;19.00;;;;;;;;;;5053316;28;20431;-56
2022/01/16 06:58:29;;;;;;;35.13;16.13;;;;;;;;;;5053143;28;20754;-54
2022/01/16 07:00:55;;;;;;;36.43;19.33;;;;;;;;;;5053161;28;20414;-58
2022/01/16 07:03:21;;;;;;;33.87;17.50;;;;;;;;;;5053042;28;20467;-58
2022/01/16 07:05:47;;;;;;;35.07;19.47;;;;;;;;;;5053222;28;20408;-55
2022/01/16 07:08:13;;;;;;;33.43;17.97;;;;;;;;;;5052905;28;20439;-58
2022/01/16 07:10:39;;;;;;;33.30;18.80;;;;;;;;;;5052872;28;20408;-58
2022/01/16 07:13:05;;;;;;;32.27;16.83;;;;;;;;;;5053128;28;20456;-58
2022/01/16 07:15:31;;;;;;;30.13;16.97;;;;;;;;;;5051640;28;20412;-54
2022/01/16 07:17:57;;;;;;;30.43;17.13;;;;;;;;;;5053064;28;20419;-61
2022/01/16 07:20:23;;;;;;;32.23;16.30;;;;;;;;;;5052963;28;20407;-59
2022/01/16 07:22:49;;;;;;;30.20;16.00;;;;;;;;;;5051382;28;20482;-63
2022/01/16 07:25:15;;;;;;;29.40;15.97;;;;;;;;;;5052802;28;20412;-56
2022/01/16 07:27:42;;;;;;;27.83;15.20;;;;;;;;;;5051394;28;20471;-58
2022/01/16 07:30:08;;;;;;;25.83;13.90;;;;;;;;;;5052687;28;20408;-55
2022/01/16 07:32:34;;;;;;;28.13;15.30;;;;;;;;;;5052819;28;20904;-59
2022/01/16 07:35:00;;;;;;;28.40;15.70;;;;;;;;;;5052749;28;20469;-57
2022/01/16 07:37:26;;;;;;;27.03;14.17;;;;;;;;;;5051357;28;20528;-57
2022/01/16 07:39:52;;;;;;;23.33;13.80;;;;;;;;;;5052593;28;20404;-58
2022/01/16 07:42:18;;;;;;;23.20;13.23;;;;;;;;;;5052867;28;20415;-57
2022/01/16 07:44:44;;;;;;;25.10;13.83;;;;;;;;;;5052731;28;20453;-58
2022/01/16 07:47:10;;;;;;;23.70;14.00;;;;;;;;;;5052562;28;20464;-56
2022/01/16 07:49:36;;;;;;;21.83;12.73;;;;;;;;;;5052447;28;20514;-56
2022/01/16 07:52:03;;;;;;;20.40;11.07;;;;;;;;;;5052619;28;20414;-56
2022/01/16 07:54:29;;;;;;;24.00;14.07;;;;;;;;;;5051393;28;20404;-60
2022/01/16 07:56:55;;;;;;;22.47;14.50;;;;;;;;;;5054818;28;20411;-56
2022/01/16 07:59:21;;;;;;;25.10;13.57;;;;;;;;;;5056350;28;20494;-55
2022/01/16 08:01:47;;;;;;;20.77;13.43;;;;;;;;;;5056123;28;20494;-62
2022/01/16 08:04:13;;;;;;;24.00;13.90;;;;;;;;;;5056248;28;20562;-56
2022/01/16 08:06:39;;;;;;;26.83;13.37;;;;;;;;;;5056163;28;20919;-53
2022/01/16 08:09:05;;;;;;;24.83;13.43;;;;;;;;;;5056351;28;20411;-58
2022/01/16 08:11:31;;;;;;;20.40;13.30;;;;;;;;;;5056429;28;20414;-54
2022/01/16 08:13:57;;;;;;;26.20;14.90;;;;;;;;;;5056103;28;20415;-56
2022/01/16 08:16:23;;;;;;;24.33;13.77;;;;;;;;;;5056125;28;20404;-56
2022/01/16 08:18:49;;;;;;;23.80;13.53;;;;;;;;;;5054764;28;20427;-65
2022/01/16 08:21:16;;;;;;;20.23;12.40;;;;;;;;;;5055771;28;20447;-54
2022/01/16 08:23:42;;;;;;;23.13;12.70;;;;;;;;;;5056311;28;20832;-54
2022/01/16 08:26:08;;;;;;;26.03;14.40;;;;;;;;;;5055923;28;20896;-57
2022/01/16 08:28:34;;;;;;;25.47;14.53;;;;;;;;;;5056143;28;20419;-53
2022/01/16 08:31:00;;;;;;;24.10;15.03;;;;;;;;;;5055970;28;20415;-56
2022/01/16 08:33:26;;;;;;;28.93;15.60;;;;;;;;;;5055978;28;20514;-59
2022/01/16 08:35:52;;;;;;;19.57;11.67;;;;;;;;;;5055781;28;20403;-57
2022/01/16 08:38:18;;;;;;;24.30;12.63;;;;;;;;;;5056035;28;20829;-59
2022/01/16 08:40:44;;;;;;;26.13;13.97;;;;;;;;;;5055769;28;20449;-56
2022/01/16 08:43:10;;;;;;;27.13;15.60;;;;;;;;;;5055604;28;20463;-56
2022/01/16 08:45:37;;;;;;;26.77;12.87;;;;;;;;;;5055786;28;20392;-54
2022/01/16 08:48:03;;;;;;;24.17;12.87;;;;;;;;;;5055727;28;20880;-56
2022/01/16 08:50:30;;;;;;;27.20;15.07;;;;;;;;;;5055471;28;20423;-55
2022/01/16 08:52:56;;;;;;;23.47;13.50;;;;;;;;;;5055713;28;20502;-53
2022/01/16 08:55:22;;;;;;;27.47;14.97;;;;;;;;;;5055465;28;20501;-54
2022/01/16 08:57:48;;;;;;;25.57;14.50;;;;;;;;;;5055426;28;20411;-56
2022/01/16 09:00:14;;;;;;;27.00;16.37;;;;;;;;;;5055546;28;20411;-63
2022/01/16 09:02:40;;;;;;;21.93;10.73;;;;;;;;;;5053870;28;20459;-54
2022/01/16 09:05:06;;;;;;;28.10;15.93;;;;;;;;;;5055546;28;20742;-55
2022/01/16 09:07:32;;;;;;;23.07;12.67;;;;;;;;;;5053300;28;20951;-56
2022/01/16 09:10:00;;;;;;;25.43;14.80;;;;;;;;;;5055141;28;20411;-56
2022/01/16 09:12:26;;;;;;;23.00;13.30;;;;;;;;;;5055238;28;20411;-54
2022/01/16 09:14:52;;;;;;;24.93;14.53;;;;;;;;;;5053764;28;20435;-56
2022/01/16 09:17:18;;;;;;;25.10;13.50;;;;;;;;;;5055041;28;20399;-56
2022/01/16 09:19:46;;;;;;;25.80;14.67;;;;;;;;;;5055162;28;20414;-62
2022/01/16 09:22:12;;;;;;;23.27;13.37;;;;;;;;;;5054957;28;20456;-58
2022/01/16 09:24:38;;;;;;;26.80;14.70;;;;;;;;;;5054830;28;20510;-55
2022/01/16 09:27:04;;;;;;;24.73;14.17;;;;;;;;;;5055004;28;20404;-62
2022/01/16 09:29:30;;;;;;;20.80;13.33;;;;;;;;;;5054891;28;20415;-60
2022/01/16 09:31:56;;;;;;;26.77;15.20;;;;;;;;;;5054685;28;20442;-60
2022/01/16 09:34:22;;;;;;;22.87;14.00;;;;;;;;;;5054649;28;20408;-60
2022/01/16 09:36:48;;;;;;;17.67;11.50;;;;;;;;;;5054758;28;20445;-57
2022/01/16 09:39:14;;;;;;;28.07;13.73;;;;;;;;;;5054880;28;20423;-54
2022/01/16 09:41:43;;;;;;;19.73;12.40;;;;;;;;;;5054429;28;20412;-56
2022/01/16 09:44:09;;;;;;;23.80;10.83;;;;;;;;;;5053242;28;20890;-57
2022/01/16 09:46:35;;;;;;;22.10;13.13;;;;;;;;;;5054578;28;20412;-55
2022/01/16 09:49:02;;;;;;;20.97;11.77;;;;;;;;;;5054627;28;20420;-54
2022/01/16 09:51:30;;;;;;;22.50;13.60;;;;;;;;;;5053056;28;20419;-62
2022/01/16 09:53:56;;;;;;;24.87;13.10;;;;;;;;;;5054271;28;20469;-57
2022/01/16 09:56:22;;;;;;;18.00;11.40;;;;;;;;;;5054148;28;20427;-60
2022/01/16 09:58:49;;;;;;;22.40;12.63;;;;;;;;;;5054491;28;20411;-61
2022/01/16 10:01:15;;;;;;;20.57;11.00;;;;;;;;;;5054225;28;20896;-62
2022/01/16 10:03:45;;;;;;;22.87;12.43;;;;;;;;;;5054333;28;20467;-63
2022/01/16 10:06:11;;;;;;;20.30;11.37;;;;;;;;;;5054075;28;20415;-56
2022/01/16 10:08:39;;;;;;;21.13;13.50;;;;;;;;;;5053848;28;20752;-58
2022/01/16 10:11:21;;;;;;;25.03;13.93;;;;;;;;;;5054061;28;20425;-61
2022/01/16 10:13:56;;;;;;;20.40;11.60;;;;;;;;;;5053949;28;20419;-60
2022/01/16 10:16:26;;;;;;;23.63;14.40;;;;;;;;;;5053924;28;20417;-58
2022/01/16 10:18:52;;;;;;;27.73;15.13;;;;;;;;;;5053541;28;20407;-64
2022/01/16 10:21:32;;;;;;;28.23;13.90;;;;;;;;;;5053535;28;20967;-57
2022/01/16 10:23:58;;;;;;;26.30;14.30;;;;;;;;;;5053695;28;20471;-62
2022/01/16 10:26:24;;;;;;;26.90;15.47;;;;;;;;;;5053587;28;20415;-61
2022/01/16 10:28:51;;;;;;;24.00;13.57;;;;;;;;;;5053646;28;20928;-63
2022/01/16 10:31:26;;;;;;;26.47;14.67;;;;;;;;;;5053670;28;20412;-61
2022/01/16 10:33:53;;;;;;;30.73;15.87;;;;;;;;;;5053671;28;20427;-58
2022/01/16 10:36:36;;;;;;;23.80;14.30;;;;;;;;;;5053520;28;20915;-60
2022/01/16 10:39:09;;;;;;;28.00;15.13;;;;;;;;;;5053529;28;20426;-63
2022/01/16 10:41:35;;;;;;;25.50;14.40;;;;;;;;;;5053410;28;20903;-57
2022/01/16 10:44:01;;;;;;;30.00;16.80;;;;;;;;;;5053383;28;20467;-61
2022/01/16 10:46:27;;;;;;;31.23;16.10;;;;;;;;;;5053507;28;20411;-61
2022/01/16 10:49:15;;;;;;;32.43;15.77;;;;;;;;;;5053260;28;20946;-63
2022/01/16 10:51:41;;;;;;;27.80;14.77;;;;;;;;;;5051806;28;20508;-55
2022/01/16 10:54:26;;;;;;;28.10;14.53;;;;;;;;;;5053070;28;20834;-61
2022/01/16 10:56:52;;;;;;;36.43;16.50;;;;;;;;;;5052999;28;20395;-57
2022/01/16 10:59:21;;;;;;;37.17;17.70;;;;;;;;;;5052990;28;20911;-55
2022/01/16 11:02:05;;;;;;;34.60;18.30;;;;;;;;;;5053011;28;20470;-55
2022/01/16 11:04:31;;;;;;;31.00;12.40;;;;;;;;;;5052955;28;20498;-55
2022/01/16 11:07:05;;;;;;;34.20;16.73;;;;;;;;;;5051475;28;20501;-55
2022/01/16 11:09:32;;;;;;;35.77;17.77;;;;;;;;;;5053282;28;20427;-54
2022/01/16 11:12:01;;;;;;;34.20;16.43;;;;;;;;;;5052661;28;20998;-56
2022/01/16 11:14:28;;;;;;;37.03;17.90;;;;;;;;;;5051617;28;20403;-58
2022/01/16 11:16:55;;;;;;;33.60;17.50;;;;;;;;;;5052790;28;20462;-58
2022/01/16 11:19:23;;;;;;;35.43;18.97;;;;;;;;;;5052881;28;20423;-57
2022/01/16 11:21:53;;;;;;;33.00;15.73;;;;;;;;;;5052671;28;20459;-62
2022/01/16 11:26:52;;;;;;;32.97;15.53;;;;;;;;;;5052874;28;20407;-55
2022/01/16 11:29:18;;;;;;;26.60;13.87;;;;;;;;;;5052578;28;20416;-55
2022/01/16 11:31:47;;;;;;;33.50;17.77;;;;;;;;;;5052420;28;20419;-59
2022/01/16 11:34:13;;;;;;;29.87;16.70;;;;;;;;;;5052908;28;20412;-56
2022/01/16 11:36:40;;;;;;;31.23;17.30;;;;;;;;;;5052609;28;20419;-58
2022/01/16 11:39:07;;;;;;;31.30;16.70;;;;;;;;;;5052892;28;20412;-58
2022/01/16 11:41:37;;;;;;;28.77;16.53;;;;;;;;;;5052713;28;20403;-55
2022/01/16 11:44:21;;;;;;;28.70;16.77;;;;;;;;;;5052949;28;20527;-57
2022/01/16 11:46:52;;;;;;;30.93;16.40;;;;;;;;;;5052845;28;20412;-58
2022/01/16 11:49:30;;;;;;;27.83;15.30;;;;;;;;;;5052595;28;20412;-54
2022/01/16 11:52:02;;;;;;;30.73;17.00;;;;;;;;;;5052582;28;20481;-55
2022/01/16 11:54:32;;;;;;;31.90;16.97;;;;;;;;;;5052296;28;20545;-56
2022/01/16 11:56:59;;;;;;;31.87;15.50;;;;;;;;;;5052338;28;20414;-53
2022/01/16 11:59:34;;;;;;;31.07;17.77;;;;;;;;;;5052531;28;20944;-55
2022/01/16 12:02:09;;;;;;;26.47;12.90;;;;;;;;;;5052522;28;20732;-54
2022/01/16 12:04:38;;;;;;;33.97;15.70;;;;;;;;;;5052320;28;20488;-54
2022/01/16 12:07:13;;;;;;;28.13;14.83;;;;;;;;;;5052635;28;20411;-55
2022/01/16 12:12:11;;;;;;;18.93;10.20;;;;;;;;;;5052565;28;20472;-58
2022/01/16 12:14:47;;;;;;;24.10;13.00;;;;;;;;;;5052252;28;20545;-56
2022/01/16 12:17:31;;;;;;;29.60;15.47;;;;;;;;;;5052262;28;20430;-57
2022/01/16 12:19:58;;;;;;;32.70;16.97;;;;;;;;;;5052154;28;20413;-55
2022/01/16 12:22:43;;;;;;;32.77;15.27;;;;;;;;;;5052034;28;20683;-59
2022/01/16 12:25:20;;;;;;;28.70;16.70;;;;;;;;;;5052107;28;20449;-55
2022/01/16 12:27:47;;;;;;;28.07;14.33;;;;;;;;;;5052073;28;20963;-55
2022/01/16 12:30:15;;;;;;;23.50;12.13;;;;;;;;;;5052164;28;20438;-53
2022/01/16 12:32:51;;;;;;;28.17;15.10;;;;;;;;;;5052156;28;20447;-56
2022/01/16 12:35:36;;;;;;;24.10;12.50;;;;;;;;;;5051862;28;20407;-55
2022/01/16 12:38:07;;;;;;;23.40;12.73;;;;;;;;;;5052280;28;20785;-54
2022/01/16 12:40:34;;;;;;;30.63;15.53;;;;;;;;;;5052165;28;20450;-56
2022/01/16 12:43:04;;;;;;;26.60;15.03;;;;;;;;;;5054316;28;20584;-53
2022/01/16 12:45:36;;;;;;;20.00;11.17;;;;;;;;;;5055835;28;20419;-55
2022/01/16 12:48:02;;;;;;;25.97;14.27;;;;;;;;;;5055715;28;20407;-56
2022/01/16 12:50:31;;;;;;;29.30;15.50;;;;;;;;;;5055589;28;20900;-57
2022/01/16 12:52:57;;;;;;;26.63;14.83;;;;;;;;;;5055446;28;20730;-54
2022/01/16 12:55:30;;;;;;;25.37;12.80;;;;;;;;;;5055382;28;20419;-55
2022/01/16 12:58:14;;;;;;;26.30;15.20;;;;;;;;;;5054177;28;20490;-54
2022/01/16 13:00:59;;;;;;;18.17;11.80;;;;;;;;;;5055441;28;20777;-55
2022/01/16 13:03:26;;;;;;;26.97;15.40;;;;;;;;;;5055214;28;20509;-55
2022/01/16 13:05:54;;;;;;;22.73;11.50;;;;;;;;;;5055209;28;20400;-55
2022/01/16 13:08:20;;;;;;;21.27;12.13;;;;;;;;;;5055145;28;20404;-55
2022/01/16 13:10:47;;;;;;;24.40;13.83;;;;;;;;;;5054929;28;20753;-55
2022/01/16 13:13:13;;;;;;;26.00;14.13;;;;;;;;;;5054998;28;20824;-57
2022/01/16 13:15:39;;;;;;;23.40;13.73;;;;;;;;;;5053722;28;20917;-57
2022/01/16 13:18:09;;;;;;;24.20;11.83;;;;;;;;;;5055250;28;20446;-56
2022/01/16 13:20:35;;;;;;;23.20;12.97;;;;;;;;;;5053626;28;20916;-55
2022/01/16 13:23:01;;;;;;;26.93;14.40;;;;;;;;;;5054960;28;20999;-55
2022/01/16 13:25:27;;;;;;;24.70;13.27;;;;;;;;;;5054864;28;20450;-56
2022/01/16 13:27:53;;;;;;;26.00;13.47;;;;;;;;;;5054653;28;20764;-57
2022/01/16 13:30:28;;;;;;;24.43;13.53;;;;;;;;;;5055033;28;20419;-55
2022/01/16 13:33:05;;;;;;;24.83;15.03;;;;;;;;;;5054943;28;20486;-56
2022/01/16 13:35:32;;;;;;;25.70;15.00;;;;;;;;;;5054829;28;20494;-56
2022/01/16 13:38:08;;;;;;;21.27;12.13;;;;;;;;;;5054585;28;20422;-54
2022/01/16 13:40:34;;;;;;;24.27;13.70;;;;;;;;;;5054733;28;20431;-55
2022/01/16 13:43:11;;;;;;;26.10;14.50;;;;;;;;;;5054598;28;20827;-54
2022/01/16 13:45:44;;;;;;;22.40;14.13;;;;;;;;;;5054550;28;20410;-56
2022/01/16 13:48:11;;;;;;;25.30;14.97;;;;;;;;;;5054675;28;20407;-57
2022/01/16 13:50:39;;;;;;;27.50;14.60;;;;;;;;;;5054534;28;20411;-54
2022/01/16 13:53:10;;;;;;;22.17;14.33;;;;;;;;;;5054011;28;20404;-54
2022/01/16 13:55:51;;;;;;;21.37;12.87;;;;;;;;;;5054216;28;20552;-55
2022/01/16 13:58:19;;;;;;;22.50;13.60;;;;;;;;;;5054143;28;20408;-54
2022/01/16 14:00:45;;;;;;;23.17;14.50;;;;;;;;;;5054404;28;20490;-54
2022/01/16 14:03:16;;;;;;;25.43;14.60;;;;;;;;;;5054034;28;20855;-55
2022/01/16 14:05:50;;;;;;;21.33;12.10;;;;;;;;;;5054118;28;20435;-55
2022/01/16 14:08:23;;;;;;;18.80;11.80;;;;;;;;;;5054392;28;20403;-55
2022/01/16 14:10:50;;;;;;;21.60;13.50;;;;;;;;;;5053914;28;20423;-55
2022/01/16 14:13:16;;;;;;;22.73;13.80;;;;;;;;;;5053950;28;20404;-54
2022/01/16 14:16:01;;;;;;;22.60;13.03;;;;;;;;;;5053785;28;20796;-55
2022/01/16 14:18:40;;;;;;;20.13;12.90;;;;;;;;;;5053751;28;20400;-55
2022/01/16 14:23:50;;;;;;;19.97;12.53;;;;;;;;;;5053693;28;20524;-56
2022/01/16 14:26:16;;;;;;;25.70;14.07;;;;;;;;;;5052471;28;20471;-54
2022/01/16 14:28:42;;;;;;;22.40;12.50;;;;;;;;;;5054431;28;20418;-56
2022/01/16 14:31:08;;;;;;;17.00;11.90;;;;;;;;;;5053672;28;20491;-54
2022/01/16 14:33:34;;;;;;;21.50;13.53;;;;;;;;;;5053793;28;20407;-53
2022/01/16 14:36:00;;;;;;;19.60;12.03;;;;;;;;;;5053510;28;20415;-57
2022/01/16 14:38:26;;;;;;;19.80;12.43;;;;;;;;;;5053460;28;20411;-55
2022/01/16 14:40:52;;;;;;;19.97;12.70;;;;;;;;;;5053228;28;20510;-57
2022/01/16 14:43:21;;;;;;;17.57;11.23;;;;;;;;;;5053269;28;20562;-54
2022/01/16 14:45:47;;;;;;;19.33;11.70;;;;;;;;;;5053540;28;20408;-57
2022/01/16 14:48:13;;;;;;;15.93;10.13;;;;;;;;;;5053353;28;20412;-56
2022/01/16 14:50:39;;;;;;;21.17;11.97;;;;;;;;;;5053241;28;20403;-54
2022/01/16 14:53:05;;;;;;;22.93;12.87;;;;;;;;;;5053132;28;20408;-57
2022/01/16 14:55:31;;;;;;;18.23;12.40;;;;;;;;;;5053325;28;20450;-59
2022/01/16 14:57:57;;;;;;;22.10;12.80;;;;;;;;;;5053057;28;20889;-55
2022/01/16 15:00:23;;;;;;;24.30;13.03;;;;;;;;;;5053122;28;20407;-56
2022/01/16 15:02:50;;;;;;;22.47;12.83;;;;;;;;;;5053098;28;20441;-56
2022/01/16 15:05:16;;;;;;;20.13;12.50;;;;;;;;;;5052417;28;20507;-54